sensor_id;sensor_type;location;lat;lon;timestamp;pressure;altitude;pressure_sealevel;temperature;humidity
51313;BME280;37397;53.226;10.400;2023-02-22T00:12:54;101189.88;;;10.07;79.98
51313;BME280;37397;53.226;10.400;2023-02-22T00:16:26;101222.75;;;10.30;80.05
51313;BME280;37397;53.226;10.400;2023-02-22T00:20:07;101231.00;;;10.28;80.15
51313;BME280;37397;53.226;10.400;2023-02-22T00:23:16;101198.59;;;10.12;80.14
51313;BME280;37397;53.226;10.400;2023-02-22T00:30:55;101225.75;;;10.26;80.07
51313;BME280;37397;53.226;10.400;2023-02-22T00:38:31;101221.78;;;10.23;80.13
51313;BME280;37397;53.226;10.400;2023-02-22T00:42:44;101193.34;;;10.01;80.12
51313;BME280;37397;53.226;10.400;2023-02-22T00:46:59;101213.84;;;10.18;80.00
51313;BME280;37397;53.226;10.400;2023-02-22T00:49:44;101203.03;;;10.13;80.09
51313;BME280;37397;53.226;10.400;2023-02-22T00:52:28;101195.91;;;10.09;80.08
51313;BME280;37397;53.226;10.400;2023-02-22T00:55:43;101187.97;;;10.03;80.18
51313;BME280;37397;53.226;10.400;2023-02-22T00:58:54;101225.44;;;10.24;80.19
51313;BME280;37397;53.226;10.400;2023-02-22T01:02:09;101192.88;;;10.03;80.15
51313;BME280;37397;53.226;10.400;2023-02-22T01:05:38;101218.91;;;10.23;80.17
51313;BME280;37397;53.226;10.400;2023-02-22T01:08:55;101196.69;;;10.09;80.13
51313;BME280;37397;53.226;10.400;2023-02-22T01:11:52;101180.81;;;9.99;80.21
51313;BME280;37397;53.226;10.400;2023-02-22T01:15:00;101221.31;;;10.25;80.17
51313;BME280;37397;53.226;10.400;2023-02-22T01:17:53;101221.31;;;10.25;80.13
51313;BME280;37397;53.226;10.400;2023-02-22T01:20:29;101186.56;;;10.08;80.06
51313;BME280;37397;53.226;10.400;2023-02-22T01:23:16;101168.75;;;9.95;80.15
51313;BME280;37397;53.226;10.400;2023-02-22T01:30:32;101188.47;;;10.11;80.06
51313;BME280;37397;53.226;10.400;2023-02-22T01:33:02;101205.94;;;10.22;80.14
51313;BME280;37397;53.226;10.400;2023-02-22T01:35:32;101202.44;;;10.18;80.17
51313;BME280;37397;53.226;10.400;2023-02-22T01:38:00;101201.03;;;10.23;80.25
51313;BME280;37397;53.226;10.400;2023-02-22T01:40:35;101192.28;;;10.17;79.99
51313;BME280;37397;53.226;10.400;2023-02-22T01:43:24;101201.03;;;10.23;79.83
51313;BME280;37397;53.226;10.400;2023-02-22T01:45:59;101205.78;;;10.26;80.06
51313;BME280;37397;53.226;10.400;2023-02-22T01:48:38;101212.28;;;10.27;80.04
51313;BME280;37397;53.226;10.400;2023-02-22T01:51:11;101195.00;;;10.21;80.01
51313;BME280;37397;53.226;10.400;2023-02-22T01:53:52;101189.75;;;10.19;80.04
51313;BME280;37397;53.226;10.400;2023-02-22T01:56:22;101191.22;;;10.24;80.10
51313;BME280;37397;53.226;10.400;2023-02-22T01:58:58;101185.00;;;10.16;80.01
51313;BME280;37397;53.226;10.400;2023-02-22T02:01:29;101185.00;;;10.16;80.13
51313;BME280;37397;53.226;10.400;2023-02-22T02:03:58;101186.91;;;10.19;79.99
51313;BME280;37397;53.226;10.400;2023-02-22T02:06:30;101186.09;;;10.19;79.94
51313;BME280;37397;53.226;10.400;2023-02-22T02:09:09;101193.25;;;10.23;80.00
51313;BME280;37397;53.226;10.400;2023-02-22T02:11:39;101178.19;;;10.23;80.06
51313;BME280;37397;53.226;10.400;2023-02-22T02:14:08;101189.47;;;10.27;79.87
51313;BME280;37397;53.226;10.400;2023-02-22T02:16:39;101183.75;;;10.27;79.89
51313;BME280;37397;53.226;10.400;2023-02-22T02:19:20;101178.03;;;10.27;79.74
51313;BME280;37397;53.226;10.400;2023-02-22T02:25:02;101161.25;;;10.19;79.88
51313;BME280;37397;53.226;10.400;2023-02-22T02:30:38;101171.72;;;10.22;79.84
51313;BME280;37397;53.226;10.400;2023-02-22T02:36:00;101161.53;;;10.12;80.06
51313;BME280;37397;53.226;10.400;2023-02-22T02:38:49;101164.41;;;10.21;79.95
51313;BME280;37397;53.226;10.400;2023-02-22T02:41:31;101166.13;;;10.19;79.92
51313;BME280;37397;53.226;10.400;2023-02-22T02:44:05;101156.47;;;10.16;79.99
51313;BME280;37397;53.226;10.400;2023-02-22T02:46:45;101155.19;;;10.17;79.94
51313;BME280;37397;53.226;10.400;2023-02-22T02:49:30;101157.91;;;10.21;79.78
51313;BME280;37397;53.226;10.400;2023-02-22T02:52:02;101161.09;;;10.23;79.96
51313;BME280;37397;53.226;10.400;2023-02-22T02:54:31;101157.09;;;10.20;80.05
51313;BME280;37397;53.226;10.400;2023-02-22T02:56:59;101152.34;;;10.17;79.95
51313;BME280;37397;53.226;10.400;2023-02-22T02:59:30;101157.44;;;10.22;79.94
51313;BME280;37397;53.226;10.400;2023-02-22T03:04:40;101139.06;;;10.14;79.98
51313;BME280;37397;53.226;10.400;2023-02-22T03:07:47;101130.50;;;10.14;79.77
51313;BME280;37397;53.226;10.400;2023-02-22T03:10:50;101145.38;;;10.18;79.84
51313;BME280;37397;53.226;10.400;2023-02-22T03:13:34;101133.34;;;10.14;79.69
51313;BME280;37397;53.226;10.400;2023-02-22T03:16:14;101140.00;;;10.20;80.11
51313;BME280;37397;53.226;10.400;2023-02-22T03:19:10;101127.78;;;10.11;79.82
51313;BME280;37397;53.226;10.400;2023-02-22T03:21:48;101122.53;;;10.09;79.93
51313;BME280;37397;53.226;10.400;2023-02-22T03:24:46;101127.19;;;10.16;79.70
51313;BME280;37397;53.226;10.400;2023-02-22T03:27:26;101133.97;;;10.18;79.93
51313;BME280;37397;53.226;10.400;2023-02-22T03:30:03;101136.81;;;10.18;80.05
51313;BME280;37397;53.226;10.400;2023-02-22T03:32:37;101141.75;;;10.18;80.21
51313;BME280;37397;53.226;10.400;2023-02-22T03:35:09;101130.81;;;10.16;79.97
51313;BME280;37397;53.226;10.400;2023-02-22T03:37:44;101139.69;;;10.18;79.79
51313;BME280;37397;53.226;10.400;2023-02-22T03:40:19;101124.13;;;10.10;79.95
51313;BME280;37397;53.226;10.400;2023-02-22T03:43:00;101136.50;;;10.16;80.01
51313;BME280;37397;53.226;10.400;2023-02-22T03:45:38;101138.09;;;10.17;79.99
51313;BME280;37397;53.226;10.400;2023-02-22T03:48:15;101129.53;;;10.17;79.94
51313;BME280;37397;53.226;10.400;2023-02-22T03:50:47;101111.59;;;10.08;79.98
51313;BME280;37397;53.226;10.400;2023-02-22T03:53:17;101123.81;;;10.17;79.97
51313;BME280;37397;53.226;10.400;2023-02-22T03:55:48;101114.31;;;10.11;80.02
51313;BME280;37397;53.226;10.400;2023-02-22T03:58:23;101127.19;;;10.16;79.98
51313;BME280;37397;53.226;10.400;2023-02-22T04:00:50;101123.81;;;10.17;80.01
51313;BME280;37397;53.226;10.400;2023-02-22T04:03:20;101120.66;;;10.15;80.01
51313;BME280;37397;53.226;10.400;2023-02-22T04:05:49;101126.34;;;10.15;80.01
51313;BME280;37397;53.226;10.400;2023-02-22T04:08:17;101124.31;;;10.16;80.06
51313;BME280;37397;53.226;10.400;2023-02-22T04:10:45;101128.75;;;10.17;79.90
51313;BME280;37397;53.226;10.400;2023-02-22T04:13:15;101116.84;;;10.09;79.93
51313;BME280;37397;53.226;10.400;2023-02-22T04:15:46;101125.72;;;10.11;80.01
51313;BME280;37397;53.226;10.400;2023-02-22T04:18:14;101129.53;;;10.17;80.05
51313;BME280;37397;53.226;10.400;2023-02-22T04:20:45;101125.88;;;10.17;80.03
51313;BME280;37397;53.226;10.400;2023-02-22T04:23:21;101127.97;;;10.16;79.84
51313;BME280;37397;53.226;10.400;2023-02-22T04:25:48;101125.09;;;10.16;80.13
51313;BME280;37397;53.226;10.400;2023-02-22T04:28:16;101115.25;;;10.08;80.17
51313;BME280;37397;53.226;10.400;2023-02-22T04:31:04;101132.88;;;10.16;79.96
51313;BME280;37397;53.226;10.400;2023-02-22T04:33:31;101127.66;;;10.14;79.96
51313;BME280;37397;53.226;10.400;2023-02-22T04:35:58;101128.44;;;10.15;79.94
51313;BME280;37397;53.226;10.400;2023-02-22T04:38:57;101126.03;;;10.13;79.78
51313;BME280;37397;53.226;10.400;2023-02-22T04:46:05;101085.72;;;9.83;80.06
51313;BME280;37397;53.226;10.400;2023-02-22T04:49:29;101122.53;;;10.09;80.05
51313;BME280;37397;53.226;10.400;2023-02-22T05:09:43;101125.69;;;10.02;80.15
51313;BME280;37397;53.226;10.400;2023-02-22T05:13:35;101110.16;;;9.94;80.21
51313;BME280;37397;53.226;10.400;2023-02-22T05:20:31;101112.22;;;10.02;80.38
51313;BME280;37397;53.226;10.400;2023-02-22T05:23:00;101117.94;;;10.02;80.29
51313;BME280;37397;53.226;10.400;2023-02-22T05:25:26;101110.50;;;10.05;80.32
51313;BME280;37397;53.226;10.400;2023-02-22T05:27:59;101119.38;;;10.07;80.06
51313;BME280;37397;53.226;10.400;2023-02-22T05:30:29;101116.53;;;10.07;80.36
51313;BME280;37397;53.226;10.400;2023-02-22T05:32:57;101120.16;;;10.08;80.21
51313;BME280;37397;53.226;10.400;2023-02-22T05:35:25;101114.44;;;10.08;80.29
51313;BME280;37397;53.226;10.400;2023-02-22T05:37:52;101113.66;;;10.07;80.26
51313;BME280;37397;53.226;10.400;2023-02-22T05:40:21;101116.84;;;10.09;80.23
51313;BME280;37397;53.226;10.400;2023-02-22T05:42:48;101116.53;;;10.07;80.26
51313;BME280;37397;53.226;10.400;2023-02-22T05:45:17;101117.31;;;10.08;80.23
51313;BME280;37397;53.226;10.400;2023-02-22T05:47:44;101114.44;;;10.08;80.28
51313;BME280;37397;53.226;10.400;2023-02-22T05:50:11;101117.66;;;10.10;80.28
51313;BME280;37397;53.226;10.400;2023-02-22T05:52:37;101109.88;;;10.10;80.29
51313;BME280;37397;53.226;10.400;2023-02-22T05:55:06;101111.94;;;10.10;80.12
51313;BME280;37397;53.226;10.400;2023-02-22T05:57:33;101112.72;;;10.10;80.11
51313;BME280;37397;53.226;10.400;2023-02-22T06:00:00;101104.34;;;10.07;80.05
51313;BME280;37397;53.226;10.400;2023-02-22T06:02:27;101113.50;;;10.11;79.98
51313;BME280;37397;53.226;10.400;2023-02-22T06:04:53;101109.09;;;10.10;80.13
51313;BME280;37397;53.226;10.400;2023-02-22T06:07:20;101107.03;;;10.10;80.10
51313;BME280;37397;53.226;10.400;2023-02-22T06:09:47;101115.56;;;10.10;80.12
51313;BME280;37397;53.226;10.400;2023-02-22T06:12:14;101103.50;;;10.06;80.02
51313;BME280;37397;53.226;10.400;2023-02-22T06:14:42;101107.03;;;10.10;80.13
51313;BME280;37397;53.226;10.400;2023-02-22T06:17:13;101092.47;;;10.08;80.14
51313;BME280;37397;53.226;10.400;2023-02-22T06:19:40;101111.94;;;10.10;80.12
51313;BME280;37397;53.226;10.400;2023-02-22T06:22:07;101109.88;;;10.10;79.99
51313;BME280;37397;53.226;10.400;2023-02-22T06:24:37;101111.13;;;10.09;80.12
51313;BME280;37397;53.226;10.400;2023-02-22T06:27:04;101107.50;;;10.09;80.00
51313;BME280;37397;53.226;10.400;2023-02-22T06:29:31;101111.94;;;10.10;80.06
51313;BME280;37397;53.226;10.400;2023-02-22T06:31:58;101109.09;;;10.10;80.07
51313;BME280;37397;53.226;10.400;2023-02-22T06:34:24;101109.88;;;10.10;79.97
51313;BME280;37397;53.226;10.400;2023-02-22T06:36:51;101114.91;;;10.06;80.20
51313;BME280;37397;53.226;10.400;2023-02-22T06:39:18;101120.50;;;10.10;80.19
51313;BME280;37397;53.226;10.400;2023-02-22T06:41:46;101116.84;;;10.09;80.05
51313;BME280;37397;53.226;10.400;2023-02-22T06:44:13;101118.13;;;10.08;80.14
51313;BME280;37397;53.226;10.400;2023-02-22T06:46:48;101112.06;;;10.06;80.12
51313;BME280;37397;53.226;10.400;2023-02-22T06:49:17;101116.84;;;10.09;80.09
51313;BME280;37397;53.226;10.400;2023-02-22T06:51:45;101122.53;;;10.09;80.09
51313;BME280;37397;53.226;10.400;2023-02-22T06:54:12;101128.25;;;10.09;79.98
51313;BME280;37397;53.226;10.400;2023-02-22T06:56:39;101121.75;;;10.09;80.27
51313;BME280;37397;53.226;10.400;2023-02-22T06:59:06;101123.00;;;10.08;80.21
51313;BME280;37397;53.226;10.400;2023-02-22T07:01:34;101113.66;;;10.07;80.07
51313;BME280;37397;53.226;10.400;2023-02-22T07:04:01;101113.03;;;10.03;80.18
51313;BME280;37397;53.226;10.400;2023-02-22T07:06:28;101118.59;;;10.07;80.14
51313;BME280;37397;53.226;10.400;2023-02-22T07:08:54;101119.38;;;10.07;80.16
51313;BME280;37397;53.226;10.400;2023-02-22T07:11:21;101125.06;;;10.07;80.21
51313;BME280;37397;53.226;10.400;2023-02-22T07:13:48;101117.66;;;10.10;80.11
51313;BME280;37397;53.226;10.400;2023-02-22T07:16:14;101118.59;;;10.07;80.22
51313;BME280;37397;53.226;10.400;2023-02-22T07:18:41;101116.84;;;10.09;80.15
51313;BME280;37397;53.226;10.400;2023-02-22T07:21:08;101117.78;;;10.06;80.12
51313;BME280;37397;53.226;10.400;2023-02-22T07:23:36;101128.25;;;10.09;80.20
51313;BME280;37397;53.226;10.400;2023-02-22T07:26:04;101129.06;;;10.10;80.16
51313;BME280;37397;53.226;10.400;2023-02-22T07:28:31;101123.81;;;10.08;80.26
51313;BME280;37397;53.226;10.400;2023-02-22T07:30:57;101116.06;;;10.09;80.31
51313;BME280;37397;53.226;10.400;2023-02-22T07:33:24;101119.69;;;10.09;80.49
51313;BME280;37397;53.226;10.400;2023-02-22T07:35:52;101125.38;;;10.09;80.46
51313;BME280;37397;53.226;10.400;2023-02-22T07:38:19;101118.44;;;10.10;80.29
51313;BME280;37397;53.226;10.400;2023-02-22T07:40:46;101121.28;;;10.10;80.13
51313;BME280;37397;53.226;10.400;2023-02-22T07:43:23;101114.31;;;10.11;80.28
51313;BME280;37397;53.226;10.400;2023-02-22T07:45:53;101120.03;;;10.11;80.24
51313;BME280;37397;53.226;10.400;2023-02-22T07:48:22;101110.81;;;10.07;80.24
51313;BME280;37397;53.226;10.400;2023-02-22T07:50:49;101120.03;;;10.11;80.35
51313;BME280;37397;53.226;10.400;2023-02-22T07:53:28;101114.31;;;10.11;80.31
51313;BME280;37397;53.226;10.400;2023-02-22T07:56:00;101115.13;;;10.12;80.13
51313;BME280;37397;53.226;10.400;2023-02-22T07:58:28;101117.50;;;10.13;80.42
51313;BME280;37397;53.226;10.400;2023-02-22T08:00:57;101113.84;;;10.13;80.38
51313;BME280;37397;53.226;10.400;2023-02-22T08:03:25;101117.03;;;10.15;80.37
51313;BME280;37397;53.226;10.400;2023-02-22T08:05:54;101114.16;;;10.15;80.36
51313;BME280;37397;53.226;10.400;2023-02-22T08:08:22;101112.09;;;10.15;80.72
51313;BME280;37397;53.226;10.400;2023-02-22T08:10:50;101117.81;;;10.15;80.48
51313;BME280;37397;53.226;10.400;2023-02-22T08:13:17;101105.16;;;10.16;80.41
51313;BME280;37397;53.226;10.400;2023-02-22T08:15:44;101108.78;;;10.17;80.45
51313;BME280;37397;53.226;10.400;2023-02-22T08:18:17;101101.00;;;10.17;80.40
51313;BME280;37397;53.226;10.400;2023-02-22T08:20:46;101101.81;;;10.18;80.59
51313;BME280;37397;53.226;10.400;2023-02-22T08:23:13;101098.16;;;10.17;80.36
51313;BME280;37397;53.226;10.400;2023-02-22T08:25:40;101091.97;;;10.19;80.59
51313;BME280;37397;53.226;10.400;2023-02-22T08:28:10;101089.13;;;10.19;80.58
51313;BME280;37397;53.226;10.400;2023-02-22T08:30:39;101101.34;;;10.19;80.44
51313;BME280;37397;53.226;10.400;2023-02-22T08:33:09;101087.88;;;10.20;80.52
51313;BME280;37397;53.226;10.400;2023-02-22T08:35:36;101091.50;;;10.20;80.52
51313;BME280;37397;53.226;10.400;2023-02-22T08:38:04;101078.84;;;10.21;80.58
51313;BME280;37397;53.226;10.400;2023-02-22T08:40:34;101081.38;;;10.19;80.50
51313;BME280;37397;53.226;10.400;2023-02-22T08:43:01;101089.00;;;10.22;80.56
51313;BME280;37397;53.226;10.400;2023-02-22T08:45:29;101081.22;;;10.23;80.93
51313;BME280;37397;53.226;10.400;2023-02-22T08:47:57;101076.47;;;10.20;80.73
51313;BME280;37397;53.226;10.400;2023-02-22T08:50:29;101079.16;;;10.23;80.47
51313;BME280;37397;53.226;10.400;2023-02-22T08:52:59;101082.34;;;10.26;80.62
51313;BME280;37397;53.226;10.400;2023-02-22T08:55:29;101085.22;;;10.26;80.70
51313;BME280;37397;53.226;10.400;2023-02-22T08:57:58;101079.03;;;10.27;80.85
51313;BME280;37397;53.226;10.400;2023-02-22T09:00:27;101080.28;;;10.26;80.58
51313;BME280;37397;53.226;10.400;2023-02-22T09:02:55;101076.97;;;10.28;80.61
51313;BME280;37397;53.226;10.400;2023-02-22T09:05:21;101078.53;;;10.29;80.52
51313;BME280;37397;53.226;10.400;2023-02-22T09:07:48;101078.53;;;10.29;80.66
51313;BME280;37397;53.226;10.400;2023-02-22T09:10:17;101072.34;;;10.30;80.70
51313;BME280;37397;53.226;10.400;2023-02-22T09:12:46;101077.59;;;10.32;80.72
51313;BME280;37397;53.226;10.400;2023-02-22T09:15:14;101084.13;;;10.32;80.77
51313;BME280;37397;53.226;10.400;2023-02-22T09:17:40;101082.06;;;10.33;80.87
51313;BME280;37397;53.226;10.400;2023-02-22T09:20:08;101084.91;;;10.33;80.87
51313;BME280;37397;53.226;10.400;2023-02-22T09:22:35;101083.19;;;10.35;80.79
51313;BME280;37397;53.226;10.400;2023-02-22T09:25:02;101085.56;;;10.37;80.82
51313;BME280;37397;53.226;10.400;2023-02-22T09:27:41;101076.34;;;10.33;80.98
51313;BME280;37397;53.226;10.400;2023-02-22T09:30:22;101084.75;;;10.36;80.78
51313;BME280;37397;53.226;10.400;2023-02-22T09:32:51;101083.03;;;10.39;80.86
51313;BME280;37397;53.226;10.400;2023-02-22T09:35:19;101084.63;;;10.40;80.99
51313;BME280;37397;53.226;10.400;2023-02-22T09:37:54;101084.63;;;10.40;80.87
51313;BME280;37397;53.226;10.400;2023-02-22T09:40:21;101078.56;;;10.38;80.97
51313;BME280;37397;53.226;10.400;2023-02-22T09:48:21;101066.53;;;10.43;80.80
51313;BME280;37397;53.226;10.400;2023-02-22T09:50:50;101070.50;;;10.46;80.86
51313;BME280;37397;53.226;10.400;2023-02-22T09:53:24;101065.59;;;10.46;80.92
51313;BME280;37397;53.226;10.400;2023-02-22T09:56:19;101069.72;;;10.45;80.89
51313;BME280;37397;53.226;10.400;2023-02-22T09:58:48;101070.34;;;10.49;80.88
51313;BME280;37397;53.226;10.400;2023-02-22T10:01:32;101064.63;;;10.49;80.79
51313;BME280;37397;53.226;10.400;2023-02-22T10:04:08;101055.59;;;10.51;80.86
51313;BME280;37397;53.226;10.400;2023-02-22T10:06:38;101055.94;;;10.53;81.25
51313;BME280;37397;53.226;10.400;2023-02-22T10:09:08;101044.03;;;10.54;81.03
51313;BME280;37397;53.226;10.400;2023-02-22T10:11:40;101040.69;;;10.56;80.87
51313;BME280;37397;53.226;10.400;2023-02-22T10:14:41;101044.03;;;10.54;80.79
51313;BME280;37397;53.226;10.400;2023-02-22T10:17:14;101041.81;;;10.58;80.95
51313;BME280;37397;53.226;10.400;2023-02-22T10:25:30;101045.44;;;10.59;81.25
51313;BME280;37397;53.226;10.400;2023-02-22T10:28:15;101042.47;;;10.63;80.99
51313;BME280;37397;53.226;10.400;2023-02-22T10:31:01;101039.91;;;10.65;81.12
51313;BME280;37397;53.226;10.400;2023-02-22T10:33:33;101036.88;;;10.68;81.17
51313;BME280;37397;53.226;10.400;2023-02-22T10:36:02;101034.69;;;10.72;81.20
51313;BME280;37397;53.226;10.400;2023-02-22T10:38:31;101030.06;;;10.75;81.42
51313;BME280;37397;53.226;10.400;2023-02-22T10:41:02;101032.75;;;10.79;81.49
51313;BME280;37397;53.226;10.400;2023-02-22T10:43:39;101035.47;;;10.82;81.65
51313;BME280;37397;53.226;10.400;2023-02-22T10:46:10;101032.91;;;10.84;81.63
51313;BME280;37397;53.226;10.400;2023-02-22T10:48:41;101026.25;;;10.87;81.59
51313;BME280;37397;53.226;10.400;2023-02-22T10:51:09;101017.97;;;10.89;81.59
51313;BME280;37397;53.226;10.400;2023-02-22T10:53:37;101019.88;;;10.92;81.57
51313;BME280;37397;53.226;10.400;2023-02-22T10:56:12;101021.78;;;10.95;81.46
51313;BME280;37397;53.226;10.400;2023-02-22T10:58:50;101022.91;;;10.98;81.56
51313;BME280;37397;53.226;10.400;2023-02-22T11:04:09;101014.16;;;11.02;81.38
51313;BME280;37397;53.226;10.400;2023-02-22T11:06:38;101017.94;;;11.08;81.57
51313;BME280;37397;53.226;10.400;2023-02-22T11:09:16;101015.09;;;11.08;81.47
51313;BME280;37397;53.226;10.400;2023-02-22T11:11:46;101007.94;;;11.12;81.49
51313;BME280;37397;53.226;10.400;2023-02-22T11:14:28;101005.88;;;11.13;81.49
51313;BME280;37397;53.226;10.400;2023-02-22T11:16:56;101000.75;;;11.17;81.63
51313;BME280;37397;53.226;10.400;2023-02-22T11:19:29;101002.66;;;11.20;81.54
51313;BME280;37397;53.226;10.400;2023-02-22T11:21:59;100995.97;;;11.23;81.35
51313;BME280;37397;53.226;10.400;2023-02-22T11:24:46;100988.72;;;11.22;81.22
51313;BME280;37397;53.226;10.400;2023-02-22T11:27:24;100989.31;;;11.26;81.05
51313;BME280;37397;53.226;10.400;2023-02-22T11:29:52;100982.63;;;11.29;81.35
51313;BME280;37397;53.226;10.400;2023-02-22T11:32:20;100979.28;;;11.31;81.48
51313;BME280;37397;53.226;10.400;2023-02-22T11:34:48;100966.91;;;11.34;81.21
51313;BME280;37397;53.226;10.400;2023-02-22T11:37:34;100968.50;;;11.35;81.33
51313;BME280;37397;53.226;10.400;2023-02-22T11:42:30;100965.75;;;11.41;81.18
51313;BME280;37397;53.226;10.400;2023-02-22T11:47:45;100949.22;;;11.45;80.99
51313;BME280;37397;53.226;10.400;2023-02-22T11:53:25;100946.69;;;11.47;80.99
51313;BME280;37397;53.226;10.400;2023-02-22T11:56:18;100931.91;;;11.48;80.91
51313;BME280;37397;53.226;10.400;2023-02-22T11:59:22;100932.19;;;11.50;80.75
51313;BME280;37397;53.226;10.400;2023-02-22T12:02:23;100927.28;;;11.51;80.88
51313;BME280;37397;53.226;10.400;2023-02-22T12:05:18;100931.72;;;11.52;80.71
51313;BME280;37397;53.226;10.400;2023-02-22T12:08:18;100927.59;;;11.53;80.54
51313;BME280;37397;53.226;10.400;2023-02-22T12:13:36;100918.34;;;11.58;80.43
51313;BME280;37397;53.226;10.400;2023-02-22T12:19:41;100910.88;;;11.61;80.52
51313;BME280;37397;53.226;10.400;2023-02-22T12:21:53;100920.53;;;11.63;80.41
51313;BME280;37397;53.226;10.400;2023-02-22T12:24:24;100909.88;;;11.64;80.66
51313;BME280;37397;53.226;10.400;2023-02-22T12:26:58;100909.72;;;11.67;80.40
51313;BME280;37397;53.226;10.400;2023-02-22T12:29:30;100907.16;;;11.70;80.20
51313;BME280;37397;53.226;10.400;2023-02-22T12:34:35;100904.59;;;11.72;80.19
51313;BME280;37397;53.226;10.400;2023-02-22T12:37:11;100902.06;;;11.74;80.15
51313;BME280;37397;53.226;10.400;2023-02-22T12:39:47;100904.91;;;11.74;80.28
51313;BME280;37397;53.226;10.400;2023-02-22T12:42:44;100907.78;;;11.74;80.15
51313;BME280;37397;53.226;10.400;2023-02-22T12:45:31;100898.50;;;11.79;80.00
51313;BME280;37397;53.226;10.400;2023-02-22T12:50:53;100890.22;;;11.81;80.02
51313;BME280;37397;53.226;10.400;2023-02-22T12:53:27;100899.91;;;11.83;79.95
51313;BME280;37397;53.226;10.400;2023-02-22T12:56:14;100889.25;;;11.84;80.12
51313;BME280;37397;53.226;10.400;2023-02-22T12:58:52;100886.69;;;11.86;79.82
51313;BME280;37397;53.226;10.400;2023-02-22T13:01:24;100890.66;;;11.89;79.97
51313;BME280;37397;53.226;10.400;2023-02-22T13:03:53;100886.50;;;11.90;79.93
51313;BME280;37397;53.226;10.400;2023-02-22T13:06:47;100888.88;;;11.91;79.65
51313;BME280;37397;53.226;10.400;2023-02-22T13:12:03;100875.50;;;11.97;79.95
51313;BME280;37397;53.226;10.400;2023-02-22T13:14:48;100872.97;;;11.99;79.63
51313;BME280;37397;53.226;10.400;2023-02-22T13:19:58;100866.25;;;12.02;79.41
51313;BME280;37397;53.226;10.400;2023-02-22T13:22:43;100868.59;;;12.04;79.40
51313;BME280;37397;53.226;10.400;2023-02-22T13:25:37;100861.13;;;12.07;79.34
51313;BME280;37397;53.226;10.400;2023-02-22T13:31:06;100858.56;;;12.09;79.24
51313;BME280;37397;53.226;10.400;2023-02-22T13:36:34;100851.84;;;12.12;79.37
51313;BME280;37397;53.226;10.400;2023-02-22T13:39:06;100849.28;;;12.14;79.41
51313;BME280;37397;53.226;10.400;2023-02-22T13:41:50;100845.16;;;12.15;79.18
51313;BME280;37397;53.226;10.400;2023-02-22T13:52:44;100843.19;;;12.21;78.83
51313;BME280;37397;53.226;10.400;2023-02-22T13:55:17;100844.28;;;12.24;78.81
51313;BME280;37397;53.226;10.400;2023-02-22T13:57:47;100845.06;;;12.24;79.15
51313;BME280;37397;53.226;10.400;2023-02-22T14:03:00;100845.34;;;12.26;78.64
51313;BME280;37397;53.226;10.400;2023-02-22T14:13:09;100848.31;;;12.32;78.37
51313;BME280;37397;53.226;10.400;2023-02-22T14:18:27;100839.91;;;12.28;78.55
51313;BME280;37397;53.226;10.400;2023-02-22T14:23:43;100844.97;;;12.33;78.25
51313;BME280;37397;53.226;10.400;2023-02-22T14:28:58;100830.94;;;12.35;78.67
51313;BME280;37397;53.226;10.400;2023-02-22T14:34:18;100826.59;;;12.25;78.58
51313;BME280;37397;53.226;10.400;2023-02-22T14:44:42;100836.47;;;12.39;78.64
51313;BME280;37397;53.226;10.400;2023-02-22T14:47:26;100828.09;;;12.35;78.44
51313;BME280;37397;53.226;10.400;2023-02-22T14:50:07;100817.13;;;12.34;78.59
51313;BME280;37397;53.226;10.400;2023-02-22T14:52:39;100821.66;;;12.40;78.52
51313;BME280;37397;53.226;10.400;2023-02-22T14:55:21;100824.25;;;12.38;78.25
51313;BME280;37397;53.226;10.400;2023-02-22T14:57:59;100832.63;;;12.42;78.38
51313;BME280;37397;53.226;10.400;2023-02-22T15:00:42;100823.25;;;12.42;78.49
51313;BME280;37397;53.226;10.400;2023-02-22T15:03:33;100827.41;;;12.40;78.40
51313;BME280;37397;53.226;10.400;2023-02-22T15:06:14;100832.34;;;12.40;78.36
51313;BME280;37397;53.226;10.400;2023-02-22T15:08:42;100826.41;;;12.44;78.40
51313;BME280;37397;53.226;10.400;2023-02-22T15:11:26;100824.81;;;12.43;78.50
51313;BME280;37397;53.226;10.400;2023-02-22T15:13:57;100822.28;;;12.45;78.16
51313;BME280;37397;53.226;10.400;2023-02-22T15:16:27;100820.19;;;12.45;78.08
51313;BME280;37397;53.226;10.400;2023-02-22T15:18:57;100820.47;;;12.47;77.95
51313;BME280;37397;53.226;10.400;2023-02-22T15:21:27;100812.09;;;12.44;78.08
51313;BME280;37397;53.226;10.400;2023-02-22T15:24:00;100821.28;;;12.48;77.86
51313;BME280;37397;53.226;10.400;2023-02-22T15:26:34;100815.56;;;12.48;78.02
51313;BME280;37397;53.226;10.400;2023-02-22T15:29:07;100813.97;;;12.47;78.05
51313;BME280;37397;53.226;10.400;2023-02-22T15:31:36;100812.69;;;12.48;77.89
51313;BME280;37397;53.226;10.400;2023-02-22T15:36:41;100821.28;;;12.48;77.80
51313;BME280;37397;53.226;10.400;2023-02-22T15:39:27;100813.97;;;12.47;77.81
51313;BME280;37397;53.226;10.400;2023-02-22T15:44:41;100815.56;;;12.48;77.80
51313;BME280;37397;53.226;10.400;2023-02-22T15:47:27;100805.09;;;12.45;78.05
51313;BME280;37397;53.226;10.400;2023-02-22T15:50:29;100806.66;;;12.46;77.97
51313;BME280;37397;53.226;10.400;2023-02-22T15:53:44;100808.25;;;12.47;77.96
51313;BME280;37397;53.226;10.400;2023-02-22T15:55:45;100815.25;;;12.46;77.89
51313;BME280;37397;53.226;10.400;2023-02-22T16:01:04;100809.53;;;12.46;77.98